createdAt,value
2018-05-18T00:00:07.700Z,0.00
2018-05-18T00:01:07.857Z,0.00
2018-05-18T00:02:08.047Z,0.00
2018-05-18T00:03:08.228Z,0.00
2018-05-18T00:04:08.377Z,0.00
2018-05-18T00:05:08.547Z,0.00
2018-05-18T00:06:08.714Z,0.00
2018-05-18T00:07:08.859Z,0.00
2018-05-18T00:08:09.028Z,0.00
2018-05-18T00:09:09.208Z,0.00
2018-05-18T00:10:09.362Z,0.00
2018-05-18T00:11:09.514Z,0.00
2018-05-18T00:12:09.688Z,0.00
2018-05-18T00:13:09.842Z,0.00
2018-05-18T00:14:10.022Z,0.00
2018-05-18T00:15:10.198Z,0.00
2018-05-18T00:16:10.348Z,0.00
2018-05-18T00:17:10.517Z,0.00
2018-05-18T00:18:10.686Z,0.00
2018-05-18T00:19:10.849Z,0.00
2018-05-18T00:20:11.035Z,0.00
2018-05-18T00:21:11.217Z,0.00
2018-05-18T00:22:11.371Z,0.00
2018-05-18T00:23:11.553Z,0.00
2018-05-18T00:24:11.708Z,0.00
2018-05-18T00:25:11.867Z,0.00
2018-05-18T00:26:12.036Z,0.00
2018-05-18T00:27:12.215Z,0.00
2018-05-18T00:28:12.397Z,0.00
2018-05-18T00:29:12.562Z,0.00
2018-05-18T00:30:12.736Z,0.00
2018-05-18T00:31:12.915Z,0.00
2018-05-18T00:32:13.083Z,0.00
2018-05-18T00:33:13.250Z,0.00
2018-05-18T00:34:13.436Z,0.00
2018-05-18T00:35:13.605Z,0.00
2018-05-18T00:36:13.777Z,0.00
2018-05-18T00:37:13.961Z,0.00
2018-05-18T00:38:14.139Z,0.00
2018-05-18T00:39:14.316Z,0.00
2018-05-18T00:40:14.491Z,0.00
2018-05-18T00:41:14.668Z,0.00
2018-05-18T00:42:14.839Z,0.00
2018-05-18T00:43:15.021Z,0.00
2018-05-18T00:44:15.197Z,0.00
2018-05-18T00:45:15.375Z,0.00
2018-05-18T00:46:15.554Z,0.00
2018-05-18T00:47:15.738Z,0.00
2018-05-18T00:48:16.016Z,0.00
2018-05-18T00:49:16.091Z,0.00
2018-05-18T00:50:16.262Z,0.00
2018-05-18T00:51:16.442Z,0.00
2018-05-18T00:52:16.635Z,0.00
2018-05-18T00:53:16.797Z,0.00
2018-05-18T00:54:16.973Z,0.00
2018-05-18T00:55:17.152Z,0.00
2018-05-18T00:56:17.331Z,0.00
2018-05-18T00:57:17.514Z,0.00
2018-05-18T00:58:17.689Z,0.00
2018-05-18T00:59:17.873Z,0.00
2018-05-18T01:00:18.056Z,0.00
2018-05-18T01:01:18.228Z,0.00
2018-05-18T01:02:18.403Z,0.00
2018-05-18T01:03:18.586Z,0.00
2018-05-18T01:04:18.756Z,0.00
2018-05-18T01:05:18.948Z,0.00
2018-05-18T01:06:19.115Z,0.00
2018-05-18T01:07:19.292Z,0.00
2018-05-18T01:08:19.478Z,0.00
2018-05-18T01:09:19.654Z,0.00
2018-05-18T01:10:19.828Z,0.00
2018-05-18T01:11:20.016Z,0.00
2018-05-18T01:12:20.197Z,0.00
2018-05-18T01:13:20.371Z,0.00
2018-05-18T01:14:20.559Z,0.00
2018-05-18T01:15:20.728Z,0.00
2018-05-18T01:16:20.912Z,0.00
2018-05-18T01:17:21.089Z,0.00
2018-05-18T01:18:21.278Z,0.00
2018-05-18T01:19:21.449Z,0.00
2018-05-18T01:20:21.626Z,0.00
2018-05-18T01:21:21.804Z,0.00
2018-05-18T01:22:21.970Z,0.00
2018-05-18T01:23:22.149Z,0.00
2018-05-18T01:24:22.333Z,0.00
2018-05-18T01:25:22.491Z,0.00
2018-05-18T01:26:22.674Z,0.00
2018-05-18T01:27:22.850Z,0.00
2018-05-18T01:28:23.038Z,0.00
2018-05-18T01:29:23.207Z,0.00
2018-05-18T01:30:23.385Z,0.00
2018-05-18T01:31:23.563Z,0.00
2018-05-18T01:32:23.741Z,0.00
2018-05-18T01:33:23.919Z,0.00
2018-05-18T01:34:24.095Z,0.00
2018-05-18T01:35:24.280Z,0.00
2018-05-18T01:36:24.690Z,0.00
2018-05-18T01:37:24.640Z,0.00
2018-05-18T01:38:24.811Z,0.00
2018-05-18T01:39:25.010Z,0.00
2018-05-18T01:40:25.169Z,0.00
2018-05-18T01:41:25.349Z,0.00
2018-05-18T01:42:25.527Z,0.00
2018-05-18T01:43:25.706Z,0.00
2018-05-18T01:44:25.886Z,0.00
2018-05-18T01:45:26.071Z,0.00
2018-05-18T01:46:26.251Z,0.00
2018-05-18T01:47:26.418Z,0.00
2018-05-18T01:48:26.599Z,0.00
2018-05-18T01:49:26.773Z,0.00
2018-05-18T01:50:26.965Z,0.00
2018-05-18T01:51:27.142Z,0.00
2018-05-18T01:52:27.318Z,0.00
2018-05-18T01:53:27.496Z,0.00
2018-05-18T01:54:27.675Z,0.00
2018-05-18T01:55:27.855Z,0.00
2018-05-18T01:56:28.045Z,0.00
2018-05-18T01:57:28.217Z,0.00
2018-05-18T01:58:28.382Z,0.00
2018-05-18T01:59:28.565Z,0.00
2018-05-18T02:00:28.757Z,0.00
2018-05-18T02:01:28.915Z,0.00
2018-05-18T02:02:29.103Z,0.00
2018-05-18T02:03:29.278Z,0.00
2018-05-18T02:04:29.441Z,0.00
2018-05-18T02:05:29.620Z,0.00
2018-05-18T02:06:29.803Z,0.00
2018-05-18T02:07:29.978Z,0.00
2018-05-18T02:08:30.157Z,0.00
2018-05-18T02:09:30.335Z,0.00
2018-05-18T02:10:30.517Z,0.00
2018-05-18T02:11:30.694Z,0.00
2018-05-18T02:12:30.877Z,0.00
2018-05-18T02:13:31.060Z,0.00
2018-05-18T02:14:31.232Z,0.00
2018-05-18T02:15:31.411Z,0.00
2018-05-18T02:16:31.597Z,0.00
2018-05-18T02:17:31.782Z,0.00
2018-05-18T02:18:31.945Z,0.00
2018-05-18T02:19:32.122Z,0.00
2018-05-18T02:20:32.299Z,0.00
2018-05-18T02:21:32.478Z,0.00
2018-05-18T02:22:32.662Z,0.00
2018-05-18T02:23:32.834Z,0.00
2018-05-18T02:24:33.011Z,0.00
2018-05-18T02:25:33.190Z,0.00
2018-05-18T02:26:33.366Z,0.00
2018-05-18T02:27:33.555Z,0.00
2018-05-18T02:28:33.723Z,0.00
2018-05-18T02:29:33.903Z,0.00
2018-05-18T02:30:34.081Z,0.00
2018-05-18T02:31:34.274Z,0.00
2018-05-18T02:32:34.445Z,0.00
2018-05-18T02:33:34.634Z,0.00
2018-05-18T02:34:34.802Z,0.00
2018-05-18T02:35:34.976Z,0.00
2018-05-18T02:36:35.155Z,0.00
2018-05-18T02:37:35.334Z,0.00
2018-05-18T02:38:35.511Z,0.00
2018-05-18T02:39:35.691Z,0.00
2018-05-18T02:40:36.118Z,0.00
2018-05-18T02:41:36.054Z,0.00
2018-05-18T02:42:36.233Z,0.00
2018-05-18T02:43:36.416Z,0.00
2018-05-18T02:44:36.596Z,0.00
2018-05-18T02:45:36.774Z,0.00
2018-05-18T02:46:36.950Z,0.00
2018-05-18T02:47:37.134Z,0.00
2018-05-18T02:48:37.305Z,0.00
2018-05-18T02:49:37.479Z,0.00
2018-05-18T02:50:37.906Z,0.00
2018-05-18T02:51:37.837Z,0.00
2018-05-18T02:52:38.028Z,0.00
2018-05-18T02:53:38.190Z,0.00
2018-05-18T02:54:38.363Z,0.00
2018-05-18T02:55:38.543Z,0.00
2018-05-18T02:56:38.722Z,0.00
2018-05-18T02:57:38.902Z,0.00
2018-05-18T02:58:39.078Z,0.00
2018-05-18T02:59:39.261Z,0.00
2018-05-18T03:00:39.441Z,0.00
2018-05-18T03:01:39.622Z,0.00
2018-05-18T03:02:39.802Z,0.00
2018-05-18T03:03:39.985Z,0.00
2018-05-18T03:04:40.156Z,0.00
2018-05-18T03:05:40.343Z,0.00
2018-05-18T03:06:40.512Z,0.00
2018-05-18T03:07:40.791Z,0.00
2018-05-18T03:08:40.882Z,4.00
2018-05-18T03:09:41.074Z,4.00
2018-05-18T03:10:41.249Z,0.00
2018-05-18T03:11:41.431Z,0.00
2018-05-18T03:12:41.602Z,4.00
2018-05-18T03:13:41.781Z,4.00
2018-05-18T03:14:41.960Z,4.00
2018-05-18T03:15:42.140Z,4.00
2018-05-18T03:16:42.319Z,4.00
2018-05-18T03:17:42.501Z,8.00
2018-05-18T03:18:42.674Z,4.00
2018-05-18T03:19:42.847Z,8.00
2018-05-18T03:20:43.022Z,4.00
2018-05-18T03:21:43.222Z,8.00
2018-05-18T03:22:43.367Z,12.00
2018-05-18T03:23:43.534Z,8.00
2018-05-18T03:24:43.720Z,12.00
2018-05-18T03:25:43.892Z,12.00
2018-05-18T03:26:44.071Z,8.00
2018-05-18T03:27:44.261Z,12.00
2018-05-18T03:28:44.428Z,12.00
2018-05-18T03:29:44.612Z,16.00
2018-05-18T03:30:44.780Z,16.00
2018-05-18T03:31:44.959Z,16.00
2018-05-18T03:32:45.138Z,20.00
2018-05-18T03:33:45.314Z,20.00
2018-05-18T03:34:45.496Z,20.00
2018-05-18T03:35:45.664Z,24.00
2018-05-18T03:36:45.843Z,24.00
2018-05-18T03:37:46.026Z,24.00
2018-05-18T03:38:46.207Z,28.00
2018-05-18T03:39:46.390Z,28.00
2018-05-18T03:40:46.558Z,32.00
2018-05-18T03:41:46.740Z,32.00
2018-05-18T03:42:46.917Z,32.00
2018-05-18T03:43:47.095Z,32.00
2018-05-18T03:44:47.264Z,36.00
2018-05-18T03:45:47.447Z,36.00
2018-05-18T03:46:47.607Z,40.00
2018-05-18T03:47:47.799Z,40.00
2018-05-18T03:48:47.984Z,44.00
2018-05-18T03:49:48.150Z,44.00
2018-05-18T03:50:48.325Z,44.00
2018-05-18T03:51:48.506Z,44.00
2018-05-18T03:52:48.685Z,52.00
2018-05-18T03:53:48.877Z,52.00
2018-05-18T03:54:49.043Z,56.00
2018-05-18T03:55:49.221Z,60.00
2018-05-18T03:56:49.394Z,60.00
2018-05-18T03:57:49.580Z,64.00
2018-05-18T03:58:49.750Z,68.00
2018-05-18T03:59:49.940Z,68.00
2018-05-18T04:00:50.118Z,72.00
2018-05-18T04:01:50.294Z,72.00
2018-05-18T04:02:50.473Z,84.00
2018-05-18T04:03:50.664Z,84.00
2018-05-18T04:04:50.836Z,88.00
2018-05-18T04:05:51.015Z,92.00
2018-05-18T04:06:51.194Z,96.00
2018-05-18T04:07:51.469Z,100.00
2018-05-18T04:08:51.550Z,104.00
2018-05-18T04:09:51.728Z,108.00
2018-05-18T04:10:51.904Z,112.00
2018-05-18T04:11:52.083Z,108.00
2018-05-18T04:12:52.257Z,112.00
2018-05-18T04:13:52.447Z,116.00
2018-05-18T04:14:52.613Z,120.00
2018-05-18T04:15:52.790Z,124.00
2018-05-18T04:16:52.996Z,124.00
2018-05-18T04:17:53.146Z,128.00
2018-05-18T04:18:53.323Z,132.00
2018-05-18T04:19:53.542Z,140.00
2018-05-18T04:20:53.675Z,140.00
2018-05-18T04:21:53.864Z,144.00
2018-05-18T04:22:54.045Z,148.00
2018-05-18T04:23:54.212Z,152.00
2018-05-18T04:25:54.567Z,164.00
2018-05-18T04:26:54.740Z,168.00
2018-05-18T04:27:54.924Z,168.00
2018-05-18T04:28:55.098Z,172.00
2018-05-18T04:29:55.272Z,176.00
2018-05-18T04:30:55.448Z,176.00
2018-05-18T04:31:55.629Z,180.00
2018-05-18T04:32:55.812Z,188.00
2018-05-18T04:33:55.982Z,184.00
2018-05-18T04:35:56.335Z,188.00
2018-05-18T04:36:56.520Z,188.00
2018-05-18T04:37:56.688Z,188.00
2018-05-18T04:38:56.865Z,192.00
2018-05-18T04:39:57.044Z,200.00
2018-05-18T04:40:57.219Z,204.00
2018-05-18T04:41:57.398Z,208.00
2018-05-18T04:42:57.577Z,208.00
2018-05-18T04:43:57.756Z,212.00
2018-05-18T04:45:58.112Z,228.00
2018-05-18T04:46:58.281Z,232.00
2018-05-18T04:47:58.458Z,244.00
2018-05-18T04:48:58.646Z,256.00
2018-05-18T04:49:58.825Z,260.00
2018-05-18T04:50:59.068Z,260.00
2018-05-18T04:51:59.175Z,256.00
2018-05-18T04:52:59.355Z,260.00
2018-05-18T04:53:59.529Z,260.00
2018-05-18T04:54:59.704Z,268.00
2018-05-18T04:55:59.884Z,272.00
2018-05-18T04:57:00.060Z,280.00
2018-05-18T04:58:00.234Z,288.00
2018-05-18T04:59:00.413Z,312.00
2018-05-18T05:00:00.592Z,320.00
2018-05-18T05:01:00.771Z,332.00
2018-05-18T05:02:00.999Z,332.00
2018-05-18T05:03:01.133Z,336.00
2018-05-18T05:04:01.314Z,336.00
2018-05-18T05:05:01.493Z,340.00
2018-05-18T05:06:01.671Z,336.00
2018-05-18T05:07:01.850Z,348.00
2018-05-18T05:08:02.027Z,344.00
2018-05-18T05:09:02.216Z,340.00
2018-05-18T05:10:02.385Z,344.00
2018-05-18T05:11:02.563Z,352.00
2018-05-18T05:12:02.743Z,372.00
2018-05-18T05:13:02.924Z,384.00
2018-05-18T05:14:03.103Z,396.00
2018-05-18T05:15:03.282Z,404.00
2018-05-18T05:16:03.462Z,404.00
2018-05-18T05:17:03.640Z,412.00
2018-05-18T05:18:03.824Z,420.00
2018-05-18T05:19:04.306Z,416.00
2018-05-18T05:20:04.177Z,420.00
2018-05-18T05:21:04.362Z,428.00
2018-05-18T05:22:04.541Z,428.00
2018-05-18T05:23:04.736Z,432.00
2018-05-18T05:24:04.892Z,428.00
2018-05-18T05:25:05.070Z,432.00
2018-05-18T05:26:05.250Z,440.00
2018-05-18T05:27:05.429Z,448.00
2018-05-18T05:28:05.607Z,452.00
2018-05-18T05:29:06.065Z,456.00
2018-05-18T05:30:05.967Z,456.00
2018-05-18T05:31:06.148Z,460.00
2018-05-18T05:32:06.334Z,464.00
2018-05-18T05:33:06.515Z,472.00
2018-05-18T05:34:06.693Z,476.00
2018-05-18T05:35:06.869Z,472.00
2018-05-18T05:36:07.050Z,476.00
2018-05-18T05:37:07.267Z,468.00
2018-05-18T05:38:07.408Z,464.00
2018-05-18T05:39:07.625Z,464.00
2018-05-18T05:40:07.797Z,460.00
2018-05-18T05:41:07.977Z,460.00
2018-05-18T05:42:08.159Z,460.00
2018-05-18T05:43:08.340Z,460.00
2018-05-18T05:44:08.515Z,464.00
2018-05-18T05:45:08.696Z,464.00
2018-05-18T05:46:08.899Z,468.00
2018-05-18T05:47:09.052Z,468.00
2018-05-18T05:48:09.235Z,468.00
2018-05-18T05:49:09.414Z,464.00
2018-05-18T05:50:09.624Z,468.00
2018-05-18T05:51:09.805Z,476.00
2018-05-18T05:52:09.981Z,492.00
2018-05-18T05:53:10.406Z,508.00
2018-05-18T05:54:10.355Z,528.00
2018-05-18T05:55:10.513Z,548.00
2018-05-18T05:56:10.694Z,564.00
2018-05-18T05:57:10.881Z,580.00
2018-05-18T05:58:11.054Z,596.00
2018-05-18T05:59:11.233Z,604.00
2018-05-18T06:00:11.413Z,612.00
2018-05-18T06:01:11.589Z,628.00
2018-05-18T06:02:11.770Z,648.00
2018-05-18T06:03:12.195Z,656.00
2018-05-18T06:04:12.132Z,672.00
2018-05-18T06:05:12.311Z,676.00
2018-05-18T06:06:12.490Z,672.00
2018-05-18T06:07:12.680Z,664.00
2018-05-18T06:08:12.842Z,656.00
2018-05-18T06:09:13.028Z,652.00
2018-05-18T06:10:13.207Z,660.00
2018-05-18T06:11:13.384Z,660.00
2018-05-18T06:12:13.583Z,660.00
2018-05-18T06:13:13.764Z,660.00
2018-05-18T06:14:13.924Z,668.00
2018-05-18T06:15:14.102Z,676.00
2018-05-18T06:16:14.281Z,672.00
2018-05-18T06:17:14.467Z,680.00
2018-05-18T06:18:14.646Z,688.00
2018-05-18T06:19:14.824Z,688.00
2018-05-18T06:20:15.005Z,704.00
2018-05-18T06:21:15.182Z,712.00
2018-05-18T06:22:15.356Z,716.00
2018-05-18T06:23:15.540Z,712.00
2018-05-18T06:24:15.719Z,732.00
2018-05-18T06:25:15.901Z,756.00
2018-05-18T06:26:16.086Z,780.00
2018-05-18T06:27:16.255Z,804.00
2018-05-18T06:28:16.437Z,828.00
2018-05-18T06:29:16.623Z,844.00
2018-05-18T06:30:16.802Z,868.00
2018-05-18T06:31:16.976Z,880.00
2018-05-18T06:32:17.159Z,900.00
2018-05-18T06:33:17.341Z,908.00
2018-05-18T06:34:17.521Z,916.00
2018-05-18T06:35:17.778Z,940.00
2018-05-18T06:36:17.881Z,952.00
2018-05-18T06:37:18.072Z,960.00
2018-05-18T06:38:18.250Z,972.00
2018-05-18T06:39:18.420Z,980.00
2018-05-18T06:40:18.601Z,984.00
2018-05-18T06:41:18.792Z,992.00
2018-05-18T06:42:18.966Z,988.00
2018-05-18T06:43:19.147Z,976.00
2018-05-18T06:44:19.325Z,968.00
2018-05-18T06:45:19.509Z,956.00
2018-05-18T06:46:19.688Z,940.00
2018-05-18T06:47:19.869Z,932.00
2018-05-18T06:48:20.051Z,920.00
2018-05-18T06:49:20.224Z,916.00
2018-05-18T06:50:20.407Z,912.00
2018-05-18T06:51:20.588Z,900.00
2018-05-18T06:52:20.815Z,896.00
2018-05-18T06:53:20.943Z,884.00
2018-05-18T06:54:21.127Z,876.00
2018-05-18T06:55:21.307Z,884.00
2018-05-18T06:56:21.484Z,900.00
2018-05-18T06:57:21.662Z,908.00
2018-05-18T06:58:21.897Z,932.00
2018-05-18T06:59:22.018Z,952.00
2018-05-18T07:00:22.194Z,980.00
2018-05-18T07:01:22.374Z,996.00
2018-05-18T07:02:22.558Z,1008.00
2018-05-18T07:03:22.738Z,1020.00
2018-05-18T07:04:22.914Z,1048.00
2018-05-18T07:05:23.094Z,1072.00
2018-05-18T07:06:23.278Z,1092.00
2018-05-18T07:07:23.457Z,1108.00
2018-05-18T07:08:23.636Z,1128.00
2018-05-18T07:09:23.809Z,1148.00
2018-05-18T07:10:23.999Z,1172.00
2018-05-18T07:11:24.165Z,1188.00
2018-05-18T07:12:24.343Z,1188.00
2018-05-18T07:13:24.526Z,1196.00
2018-05-18T07:14:24.708Z,1200.00
2018-05-18T07:15:24.883Z,1220.00
2018-05-18T07:16:25.117Z,1244.00
2018-05-18T07:17:25.249Z,1256.00
2018-05-18T07:18:25.419Z,1272.00
2018-05-18T07:19:25.602Z,1304.00
2018-05-18T07:20:25.790Z,1340.00
2018-05-18T07:21:25.964Z,1376.00
2018-05-18T07:22:26.145Z,1392.00
2018-05-18T07:23:26.319Z,1408.00
2018-05-18T07:24:26.496Z,1420.00
2018-05-18T07:25:26.678Z,1432.00
2018-05-18T07:26:26.848Z,1416.00
2018-05-18T07:27:27.026Z,1392.00
2018-05-18T07:28:27.213Z,1368.00
2018-05-18T07:29:27.387Z,1360.00
2018-05-18T07:30:27.570Z,1368.00
2018-05-18T07:31:27.990Z,1384.00
2018-05-18T07:32:27.926Z,1404.00
2018-05-18T07:33:28.109Z,1436.00
2018-05-18T07:34:28.311Z,1464.00
2018-05-18T07:35:28.464Z,1496.00
2018-05-18T07:36:28.654Z,1520.00
2018-05-18T07:37:28.818Z,1536.00
2018-05-18T07:38:28.985Z,1544.00
2018-05-18T07:39:29.181Z,1560.00
2018-05-18T07:40:29.359Z,1600.00
2018-05-18T07:41:29.771Z,1628.00
2018-05-18T07:42:29.706Z,1660.00
2018-05-18T07:43:29.892Z,1700.00
2018-05-18T07:45:30.258Z,1768.00
2018-05-18T07:46:30.407Z,1788.00
2018-05-18T07:47:30.579Z,1796.00
2018-05-18T07:48:30.759Z,1816.00
2018-05-18T07:49:30.946Z,1824.00
2018-05-18T07:50:31.117Z,1844.00
2018-05-18T07:51:31.287Z,1872.00
2018-05-18T07:52:31.488Z,1940.00
2018-05-18T07:53:31.710Z,2012.00
2018-05-18T07:54:31.828Z,2040.00
2018-05-18T07:55:32.006Z,2024.00
2018-05-18T07:56:32.189Z,1984.00
2018-05-18T07:57:32.363Z,1944.00
2018-05-18T07:58:32.542Z,1896.00
2018-05-18T07:59:32.729Z,1844.00
2018-05-18T08:00:32.891Z,1796.00
2018-05-18T08:01:33.068Z,1744.00
2018-05-18T08:02:33.243Z,1700.00
2018-05-18T08:03:33.407Z,1672.00
2018-05-18T08:04:33.594Z,1648.00
2018-05-18T08:05:33.764Z,1624.00
2018-05-18T08:06:33.946Z,1608.00
2018-05-18T08:07:34.126Z,1600.00
2018-05-18T08:08:34.303Z,1596.00
2018-05-18T08:09:34.500Z,1580.00
2018-05-18T08:10:34.665Z,1568.00
2018-05-18T08:11:34.845Z,1552.00
2018-05-18T08:12:35.023Z,1552.00
2018-05-18T08:13:35.205Z,1560.00
2018-05-18T08:14:35.389Z,1584.00
2018-05-18T08:15:35.570Z,1616.00
2018-05-18T08:16:35.737Z,1652.00
2018-05-18T08:17:35.912Z,1684.00
2018-05-18T08:18:36.091Z,1708.00
2018-05-18T08:19:36.275Z,1732.00
2018-05-18T08:20:36.456Z,1756.00
2018-05-18T08:21:36.654Z,1792.00
2018-05-18T08:22:36.806Z,1860.00
2018-05-18T08:23:36.975Z,1952.00
2018-05-18T08:24:37.148Z,2032.00
2018-05-18T08:25:37.331Z,2136.00
2018-05-18T08:26:37.512Z,2220.00
2018-05-18T08:27:37.777Z,2288.00
2018-05-18T08:28:37.872Z,2352.00
2018-05-18T08:29:38.038Z,2412.00
2018-05-18T08:30:38.217Z,2428.00
2018-05-18T08:31:38.404Z,2432.00
2018-05-18T08:32:38.580Z,2432.00
2018-05-18T08:33:38.765Z,2420.00
2018-05-18T08:34:38.937Z,2404.00
2018-05-18T08:35:39.119Z,2360.00
2018-05-18T08:36:39.283Z,2300.00
2018-05-18T08:37:39.455Z,2236.00
2018-05-18T08:38:39.862Z,2200.00
2018-05-18T08:39:39.798Z,2208.00
2018-05-18T08:40:39.980Z,2228.00
2018-05-18T08:41:40.424Z,2240.00
2018-05-18T08:42:40.369Z,2284.00
2018-05-18T08:43:40.549Z,2380.00
2018-05-18T08:44:40.727Z,2476.00
2018-05-18T08:45:40.917Z,2556.00
2018-05-18T08:46:41.080Z,2644.00
2018-05-18T08:47:41.266Z,2744.00
2018-05-18T08:48:41.444Z,2828.00
2018-05-18T08:49:41.628Z,2892.00
2018-05-18T08:50:41.811Z,2952.00
2018-05-18T08:51:41.968Z,2968.00
2018-05-18T08:52:42.196Z,2984.00
2018-05-18T08:53:42.366Z,2984.00
2018-05-18T08:54:42.546Z,2968.00
2018-05-18T08:55:42.788Z,2928.00
2018-05-18T08:56:42.909Z,2924.00
2018-05-18T08:57:43.080Z,2980.00
2018-05-18T08:58:43.264Z,3068.00
2018-05-18T08:59:43.438Z,3056.00
2018-05-18T09:00:43.613Z,2976.00
2018-05-18T09:01:43.795Z,2864.00
2018-05-18T09:02:43.975Z,2768.00
2018-05-18T09:03:44.164Z,2688.00
2018-05-18T09:04:44.323Z,2604.00
2018-05-18T09:06:44.661Z,2480.00
2018-05-18T09:07:44.845Z,2432.00
2018-05-18T09:08:45.028Z,2360.00
2018-05-18T09:09:45.204Z,2284.00
2018-05-18T09:10:45.386Z,2220.00
2018-05-18T09:11:45.576Z,2180.00
2018-05-18T09:12:45.793Z,2140.00
2018-05-18T09:13:45.925Z,2112.00
2018-05-18T09:14:46.101Z,2088.00
2018-05-18T09:16:46.458Z,2016.00
2018-05-18T09:17:46.640Z,1968.00
2018-05-18T09:18:46.828Z,1932.00
2018-05-18T09:19:47.001Z,1916.00
2018-05-18T09:20:47.186Z,1956.00
2018-05-18T09:21:47.348Z,2060.00
2018-05-18T09:22:47.892Z,2140.00
2018-05-18T09:23:47.701Z,2244.00
2018-05-18T09:24:47.880Z,2344.00
2018-05-18T09:25:48.069Z,2384.00
2018-05-18T09:26:48.234Z,2424.00
2018-05-18T09:27:48.406Z,2460.00
2018-05-18T09:28:48.594Z,2532.00
2018-05-18T09:29:48.763Z,2612.00
2018-05-18T09:30:49.004Z,2636.00
2018-05-18T09:31:49.098Z,2656.00
2018-05-18T09:32:49.274Z,2664.00
2018-05-18T09:33:49.449Z,2676.00
2018-05-18T09:34:49.608Z,2712.00
2018-05-18T09:35:49.790Z,2748.00
2018-05-18T09:36:49.969Z,2776.00
2018-05-18T09:37:50.149Z,2792.00
2018-05-18T09:38:50.331Z,2804.00
2018-05-18T09:39:50.584Z,2836.00
2018-05-18T09:40:50.681Z,2844.00
2018-05-18T09:41:50.861Z,2872.00
2018-05-18T09:42:51.041Z,2868.00
2018-05-18T09:43:51.226Z,2864.00
2018-05-18T09:44:51.396Z,2912.00
2018-05-18T09:45:51.578Z,2980.00
2018-05-18T09:46:51.783Z,3000.00
2018-05-18T09:47:52.095Z,3040.00
2018-05-18T09:48:52.113Z,3096.00
2018-05-18T09:49:52.685Z,3176.00
2018-05-18T09:50:52.481Z,3288.00
2018-05-18T09:51:52.674Z,3396.00
2018-05-18T09:52:52.836Z,3468.00
2018-05-18T09:53:53.005Z,3504.00
2018-05-18T09:54:53.361Z,3528.00
2018-05-18T09:55:53.381Z,3508.00
2018-05-18T09:56:53.542Z,3508.00
2018-05-18T09:57:53.720Z,3564.00
2018-05-18T09:58:53.905Z,3644.00
2018-05-18T09:59:54.072Z,3692.00
2018-05-18T10:00:54.249Z,3732.00
2018-05-18T10:01:54.441Z,3764.00
2018-05-18T10:02:54.584Z,3728.00
2018-05-18T10:03:54.756Z,3764.00
2018-05-18T10:04:54.932Z,3872.00
2018-05-18T10:05:55.109Z,3984.00
2018-05-18T10:06:55.324Z,4100.00
2018-05-18T10:07:55.438Z,4168.00
2018-05-18T10:08:55.613Z,4212.00
2018-05-18T10:09:55.773Z,4252.00
2018-05-18T10:10:55.939Z,4256.00
2018-05-18T10:11:56.114Z,4288.00
2018-05-18T10:12:56.286Z,4320.00
2018-05-18T10:13:56.476Z,4368.00
2018-05-18T10:14:56.640Z,4396.00
2018-05-18T10:15:56.824Z,4352.00
2018-05-18T10:16:57.002Z,4280.00
2018-05-18T10:17:57.184Z,4256.00
2018-05-18T10:18:57.359Z,4256.00
2018-05-18T10:19:57.527Z,4256.00
2018-05-18T10:20:57.703Z,4256.00
2018-05-18T10:21:57.872Z,4248.00
2018-05-18T10:22:58.041Z,4228.00
2018-05-18T10:23:58.205Z,4208.00
2018-05-18T10:24:58.404Z,4200.00
2018-05-18T10:25:58.540Z,4168.00
2018-05-18T10:26:58.831Z,4176.00
2018-05-18T10:27:58.885Z,4172.00
2018-05-18T10:28:59.044Z,4136.00
2018-05-18T10:29:59.195Z,4132.00
2018-05-18T10:30:59.375Z,4112.00
2018-05-18T10:31:59.578Z,4112.00
2018-05-18T10:32:59.715Z,4132.00
2018-05-18T10:33:59.979Z,4204.00
2018-05-18T10:35:00.062Z,4300.00
2018-05-18T10:36:00.228Z,4444.00
2018-05-18T10:37:00.433Z,4584.00
2018-05-18T10:38:00.597Z,4688.00
2018-05-18T10:39:00.745Z,4772.00
2018-05-18T10:40:00.949Z,4788.00
2018-05-18T10:41:01.094Z,4816.00
2018-05-18T10:42:01.300Z,4820.00
2018-05-18T10:43:01.432Z,4796.00
2018-05-18T10:44:01.609Z,4728.00
2018-05-18T10:45:02.022Z,4656.00
2018-05-18T10:46:01.931Z,4572.00
2018-05-18T10:47:02.087Z,4540.00
2018-05-18T10:48:02.287Z,4596.00
2018-05-18T10:49:02.687Z,4640.00
2018-05-18T10:50:02.629Z,4708.00
2018-05-18T10:51:02.823Z,4784.00
2018-05-18T10:52:02.993Z,4852.00
2018-05-18T10:53:03.267Z,4860.00
2018-05-18T10:54:03.344Z,4928.00
2018-05-18T10:55:03.513Z,5020.00
2018-05-18T10:56:03.726Z,5124.00
2018-05-18T10:57:03.900Z,5228.00
2018-05-18T10:58:04.117Z,5292.00
2018-05-18T10:59:04.496Z,5292.00
2018-05-18T11:00:04.423Z,5260.00
2018-05-18T11:01:04.647Z,5220.00
2018-05-18T11:02:04.817Z,5084.00
2018-05-18T11:03:04.987Z,4944.00
2018-05-18T11:04:05.164Z,4780.00
2018-05-18T11:05:05.333Z,4652.00
2018-05-18T11:06:05.751Z,4656.00
2018-05-18T11:07:05.687Z,4692.00
2018-05-18T11:08:05.853Z,4788.00
2018-05-18T11:10:06.207Z,4720.00
2018-05-18T11:11:06.395Z,4660.00
2018-05-18T11:12:06.584Z,4612.00
2018-05-18T11:13:06.737Z,4576.00
2018-05-18T11:14:06.958Z,4560.00
2018-05-18T11:15:07.095Z,4524.00
2018-05-18T11:16:07.249Z,4524.00
2018-05-18T11:17:07.429Z,4568.00
2018-05-18T11:18:07.651Z,4580.00
2018-05-18T11:19:07.815Z,4584.00
2018-05-18T11:20:08.018Z,4576.00
2018-05-18T11:21:08.202Z,4580.00
2018-05-18T11:22:08.334Z,4612.00
2018-05-18T11:23:08.628Z,4624.00
2018-05-18T11:24:08.658Z,4612.00
2018-05-18T11:25:08.816Z,4544.00
2018-05-18T11:26:08.993Z,4488.00
2018-05-18T11:27:09.185Z,4460.00
2018-05-18T11:28:09.366Z,4376.00
2018-05-18T11:29:09.518Z,4280.00
2018-05-18T11:30:09.702Z,4196.00
2018-05-18T11:31:09.906Z,4084.00
2018-05-18T11:32:10.064Z,3920.00
2018-05-18T11:33:10.363Z,3788.00
2018-05-18T11:34:10.488Z,3684.00
2018-05-18T11:35:10.636Z,3584.00
2018-05-18T11:36:10.810Z,3516.00
2018-05-18T11:37:10.967Z,3472.00
2018-05-18T11:38:11.180Z,3496.00
2018-05-18T11:39:11.439Z,3516.00
2018-05-18T11:40:11.594Z,3532.00
2018-05-18T11:41:11.719Z,3556.00
2018-05-18T11:42:11.889Z,3568.00
2018-05-18T11:44:12.257Z,3524.00
2018-05-18T11:45:12.408Z,3492.00
2018-05-18T11:46:12.585Z,3384.00
2018-05-18T11:47:12.750Z,3320.00
2018-05-18T11:48:12.929Z,3268.00
2018-05-18T11:49:13.141Z,3228.00
2018-05-18T11:50:13.337Z,3204.00
2018-05-18T11:51:13.520Z,3200.00
2018-05-18T11:52:13.716Z,3180.00
2018-05-18T11:53:16.021Z,3184.00
2018-05-18T11:54:14.078Z,3224.00
2018-05-18T11:55:14.193Z,3292.00
2018-05-18T11:57:14.552Z,3308.00
2018-05-18T11:58:14.721Z,3300.00
2018-05-18T11:59:16.272Z,3276.00
2018-05-18T12:00:15.059Z,3220.00
2018-05-18T12:01:15.237Z,3156.00
2018-05-18T12:02:15.416Z,3096.00
2018-05-18T12:03:15.615Z,3064.00
2018-05-18T12:04:15.752Z,3072.00
2018-05-18T12:05:15.927Z,3068.00
2018-05-18T12:07:16.365Z,3100.00
2018-05-18T12:08:16.482Z,3108.00
2018-05-18T12:09:16.608Z,3116.00
2018-05-18T12:10:16.780Z,3100.00
2018-05-18T12:11:16.946Z,3076.00
2018-05-18T12:12:17.125Z,3060.00
2018-05-18T12:13:17.313Z,3036.00
2018-05-18T12:14:17.496Z,3008.00
2018-05-18T12:15:18.774Z,2996.00
2018-05-18T12:16:17.904Z,2992.00
2018-05-18T12:17:18.071Z,2964.00
2018-05-18T12:18:18.218Z,2940.00
2018-05-18T12:19:19.150Z,2924.00
2018-05-18T12:20:18.777Z,2928.00
2018-05-18T12:21:18.748Z,2972.00
2018-05-18T12:22:18.917Z,3060.00
2018-05-18T12:23:19.079Z,3160.00
2018-05-18T12:24:19.244Z,3288.00
2018-05-18T12:25:19.419Z,3396.00
2018-05-18T12:27:19.805Z,3612.00
2018-05-18T12:28:20.241Z,3668.00
2018-05-18T12:29:20.154Z,3668.00
2018-05-18T12:30:20.356Z,3664.00
2018-05-18T12:31:20.497Z,3692.00
2018-05-18T12:32:20.681Z,3716.00
2018-05-18T12:33:20.850Z,3700.00
2018-05-18T12:34:21.048Z,3684.00
2018-05-18T12:35:21.196Z,3648.00
2018-05-18T12:36:21.399Z,3660.00
2018-05-18T12:37:21.510Z,3700.00
2018-05-18T12:38:21.708Z,3760.00
2018-05-18T12:39:21.868Z,3756.00
2018-05-18T12:40:22.037Z,3704.00
2018-05-18T12:41:22.173Z,3620.00
2018-05-18T12:42:22.342Z,3544.00
2018-05-18T12:43:22.508Z,3484.00
2018-05-18T12:44:22.677Z,3424.00
2018-05-18T12:45:22.854Z,3372.00